sensor_id;sensor_type;location;lat;lon;timestamp;P1;durP1;ratioP1;P2;durP2;ratioP2
15816;SDS011;8009;50.070;8.232;2023-05-07T00:01:10;19.00;;;18.30;;
15816;SDS011;8009;50.070;8.232;2023-05-07T00:03:38;16.97;;;16.37;;
15816;SDS011;8009;50.070;8.232;2023-05-07T00:06:09;14.53;;;14.03;;
15816;SDS011;8009;50.070;8.232;2023-05-07T00:08:37;12.93;;;12.43;;
15816;SDS011;8009;50.070;8.232;2023-05-07T00:11:06;13.37;;;12.87;;
15816;SDS011;8009;50.070;8.232;2023-05-07T00:13:34;13.93;;;13.43;;
15816;SDS011;8009;50.070;8.232;2023-05-07T00:16:03;14.57;;;14.07;;
15816;SDS011;8009;50.070;8.232;2023-05-07T00:18:31;14.90;;;14.33;;
15816;SDS011;8009;50.070;8.232;2023-05-07T00:21:00;15.80;;;15.20;;
15816;SDS011;8009;50.070;8.232;2023-05-07T00:23:30;17.27;;;16.63;;
15816;SDS011;8009;50.070;8.232;2023-05-07T00:25:59;14.93;;;14.33;;
15816;SDS011;8009;50.070;8.232;2023-05-07T00:28:27;17.67;;;16.97;;
15816;SDS011;8009;50.070;8.232;2023-05-07T00:30:55;22.07;;;21.23;;
15816;SDS011;8009;50.070;8.232;2023-05-07T00:33:24;20.90;;;20.10;;
15816;SDS011;8009;50.070;8.232;2023-05-07T00:35:52;18.77;;;18.07;;
15816;SDS011;8009;50.070;8.232;2023-05-07T00:38:21;20.97;;;20.17;;
15816;SDS011;8009;50.070;8.232;2023-05-07T00:40:53;21.13;;;20.33;;
15816;SDS011;8009;50.070;8.232;2023-05-07T00:43:21;17.60;;;16.93;;
15816;SDS011;8009;50.070;8.232;2023-05-07T00:45:49;15.57;;;14.97;;
15816;SDS011;8009;50.070;8.232;2023-05-07T00:48:17;19.27;;;18.58;;
15816;SDS011;8009;50.070;8.232;2023-05-07T00:50:46;15.00;;;14.43;;
15816;SDS011;8009;50.070;8.232;2023-05-07T00:53:15;17.13;;;16.43;;
15816;SDS011;8009;50.070;8.232;2023-05-07T00:55:43;16.10;;;15.50;;
15816;SDS011;8009;50.070;8.232;2023-05-07T00:58:14;16.37;;;15.77;;
15816;SDS011;8009;50.070;8.232;2023-05-07T01:00:42;15.33;;;14.73;;
15816;SDS011;8009;50.070;8.232;2023-05-07T01:03:11;19.93;;;19.17;;
15816;SDS011;8009;50.070;8.232;2023-05-07T01:05:39;19.07;;;18.37;;
15816;SDS011;8009;50.070;8.232;2023-05-07T01:08:09;19.47;;;18.77;;
15816;SDS011;8009;50.070;8.232;2023-05-07T01:10:38;21.92;;;21.13;;
15816;SDS011;8009;50.070;8.232;2023-05-07T01:13:08;23.70;;;22.80;;
15816;SDS011;8009;50.070;8.232;2023-05-07T01:15:39;19.73;;;19.00;;
15816;SDS011;8009;50.070;8.232;2023-05-07T01:18:08;19.03;;;18.33;;
15816;SDS011;8009;50.070;8.232;2023-05-07T01:20:36;19.20;;;18.50;;
15816;SDS011;8009;50.070;8.232;2023-05-07T01:23:07;18.00;;;17.30;;
15816;SDS011;8009;50.070;8.232;2023-05-07T01:25:38;17.63;;;16.93;;
15816;SDS011;8009;50.070;8.232;2023-05-07T01:28:06;16.40;;;15.80;;
15816;SDS011;8009;50.070;8.232;2023-05-07T01:30:38;16.53;;;15.93;;
15816;SDS011;8009;50.070;8.232;2023-05-07T01:33:11;14.73;;;14.23;;
15816;SDS011;8009;50.070;8.232;2023-05-07T01:35:43;15.63;;;15.03;;
15816;SDS011;8009;50.070;8.232;2023-05-07T01:38:17;14.70;;;14.20;;
15816;SDS011;8009;50.070;8.232;2023-05-07T01:40:46;15.37;;;14.77;;
15816;SDS011;8009;50.070;8.232;2023-05-07T01:43:15;14.80;;;14.30;;
15816;SDS011;8009;50.070;8.232;2023-05-07T01:45:43;13.90;;;13.40;;
15816;SDS011;8009;50.070;8.232;2023-05-07T01:48:14;15.00;;;14.43;;
15816;SDS011;8009;50.070;8.232;2023-05-07T01:50:43;15.70;;;15.10;;
15816;SDS011;8009;50.070;8.232;2023-05-07T01:53:12;16.13;;;15.53;;
15816;SDS011;8009;50.070;8.232;2023-05-07T01:55:43;16.03;;;15.43;;
15816;SDS011;8009;50.070;8.232;2023-05-07T01:58:11;12.70;;;12.20;;
15816;SDS011;8009;50.070;8.232;2023-05-07T02:00:39;13.03;;;12.53;;
15816;SDS011;8009;50.070;8.232;2023-05-07T02:03:08;13.83;;;13.33;;
15816;SDS011;8009;50.070;8.232;2023-05-07T02:05:37;12.80;;;12.30;;
15816;SDS011;8009;50.070;8.232;2023-05-07T02:08:05;11.33;;;10.93;;
15816;SDS011;8009;50.070;8.232;2023-05-07T02:10:33;13.63;;;13.13;;
15816;SDS011;8009;50.070;8.232;2023-05-07T02:13:04;11.40;;;11.00;;
15816;SDS011;8009;50.070;8.232;2023-05-07T02:15:32;12.70;;;12.20;;
15816;SDS011;8009;50.070;8.232;2023-05-07T02:18:01;11.37;;;10.97;;
15816;SDS011;8009;50.070;8.232;2023-05-07T02:20:31;11.13;;;10.73;;
15816;SDS011;8009;50.070;8.232;2023-05-07T02:23:00;13.40;;;12.90;;
15816;SDS011;8009;50.070;8.232;2023-05-07T02:25:28;12.53;;;12.03;;
15816;SDS011;8009;50.070;8.232;2023-05-07T02:27:57;12.47;;;11.97;;
15816;SDS011;8009;50.070;8.232;2023-05-07T02:30:28;11.67;;;11.27;;
15816;SDS011;8009;50.070;8.232;2023-05-07T02:32:56;11.43;;;11.03;;
15816;SDS011;8009;50.070;8.232;2023-05-07T02:35:24;12.47;;;12.00;;
15816;SDS011;8009;50.070;8.232;2023-05-07T02:37:53;12.13;;;11.73;;
15816;SDS011;8009;50.070;8.232;2023-05-07T02:40:22;12.17;;;11.77;;
15816;SDS011;8009;50.070;8.232;2023-05-07T02:42:50;11.40;;;11.00;;
15816;SDS011;8009;50.070;8.232;2023-05-07T02:45:18;12.07;;;11.67;;
15816;SDS011;8009;50.070;8.232;2023-05-07T02:47:49;12.93;;;12.43;;
15816;SDS011;8009;50.070;8.232;2023-05-07T02:50:17;11.10;;;10.70;;
15816;SDS011;8009;50.070;8.232;2023-05-07T02:52:46;12.47;;;11.97;;
15816;SDS011;8009;50.070;8.232;2023-05-07T02:55:14;12.80;;;12.30;;
15816;SDS011;8009;50.070;8.232;2023-05-07T02:57:43;13.77;;;13.27;;
15816;SDS011;8009;50.070;8.232;2023-05-07T03:00:12;11.57;;;11.17;;
15816;SDS011;8009;50.070;8.232;2023-05-07T03:02:42;15.43;;;14.83;;
15816;SDS011;8009;50.070;8.232;2023-05-07T03:05:12;12.07;;;11.67;;
15816;SDS011;8009;50.070;8.232;2023-05-07T03:07:41;12.63;;;12.13;;
15816;SDS011;8009;50.070;8.232;2023-05-07T03:10:11;11.33;;;10.93;;
15816;SDS011;8009;50.070;8.232;2023-05-07T03:12:39;12.87;;;12.37;;
15816;SDS011;8009;50.070;8.232;2023-05-07T03:15:08;11.63;;;11.23;;
15816;SDS011;8009;50.070;8.232;2023-05-07T03:17:38;13.37;;;12.87;;
15816;SDS011;8009;50.070;8.232;2023-05-07T03:20:07;12.27;;;11.87;;
15816;SDS011;8009;50.070;8.232;2023-05-07T03:22:39;13.07;;;12.57;;
15816;SDS011;8009;50.070;8.232;2023-05-07T03:25:08;12.37;;;11.93;;
15816;SDS011;8009;50.070;8.232;2023-05-07T03:27:36;12.70;;;12.20;;
15816;SDS011;8009;50.070;8.232;2023-05-07T03:30:07;10.77;;;10.37;;
15816;SDS011;8009;50.070;8.232;2023-05-07T03:32:36;11.97;;;11.57;;
15816;SDS011;8009;50.070;8.232;2023-05-07T03:35:04;11.50;;;11.10;;
15816;SDS011;8009;50.070;8.232;2023-05-07T03:37:33;10.97;;;10.57;;
15816;SDS011;8009;50.070;8.232;2023-05-07T03:40:04;13.47;;;12.97;;
15816;SDS011;8009;50.070;8.232;2023-05-07T03:42:37;11.17;;;10.77;;
15816;SDS011;8009;50.070;8.232;2023-05-07T03:45:06;12.47;;;12.03;;
15816;SDS011;8009;50.070;8.232;2023-05-07T03:47:35;11.13;;;10.73;;
15816;SDS011;8009;50.070;8.232;2023-05-07T03:50:04;10.60;;;10.20;;
15816;SDS011;8009;50.070;8.232;2023-05-07T03:52:32;11.87;;;11.47;;
15816;SDS011;8009;50.070;8.232;2023-05-07T03:55:04;12.47;;;12.00;;
15816;SDS011;8009;50.070;8.232;2023-05-07T03:57:33;11.77;;;11.37;;
15816;SDS011;8009;50.070;8.232;2023-05-07T04:00:01;11.83;;;11.43;;
15816;SDS011;8009;50.070;8.232;2023-05-07T04:02:31;12.80;;;12.30;;
15816;SDS011;8009;50.070;8.232;2023-05-07T04:05:00;12.07;;;11.63;;
15816;SDS011;8009;50.070;8.232;2023-05-07T04:07:29;12.53;;;12.03;;
15816;SDS011;8009;50.070;8.232;2023-05-07T04:09:57;13.20;;;12.70;;
15816;SDS011;8009;50.070;8.232;2023-05-07T04:12:28;12.07;;;11.67;;
15816;SDS011;8009;50.070;8.232;2023-05-07T04:14:56;11.50;;;11.10;;
15816;SDS011;8009;50.070;8.232;2023-05-07T04:17:24;12.60;;;12.10;;
15816;SDS011;8009;50.070;8.232;2023-05-07T04:19:53;11.60;;;11.20;;
15816;SDS011;8009;50.070;8.232;2023-05-07T04:22:21;10.67;;;10.27;;
15816;SDS011;8009;50.070;8.232;2023-05-07T04:24:49;12.57;;;12.07;;
15816;SDS011;8009;50.070;8.232;2023-05-07T04:27:17;10.77;;;10.37;;
15816;SDS011;8009;50.070;8.232;2023-05-07T04:29:49;11.67;;;11.27;;
15816;SDS011;8009;50.070;8.232;2023-05-07T04:32:20;12.43;;;11.97;;
15816;SDS011;8009;50.070;8.232;2023-05-07T04:34:50;11.67;;;11.27;;
15816;SDS011;8009;50.070;8.232;2023-05-07T04:37:19;11.93;;;11.53;;
15816;SDS011;8009;50.070;8.232;2023-05-07T04:39:47;11.77;;;11.37;;
15816;SDS011;8009;50.070;8.232;2023-05-07T04:42:16;12.17;;;11.77;;
15816;SDS011;8009;50.070;8.232;2023-05-07T04:44:45;11.83;;;11.43;;
15816;SDS011;8009;50.070;8.232;2023-05-07T04:47:15;11.43;;;11.03;;
15816;SDS011;8009;50.070;8.232;2023-05-07T04:49:44;11.70;;;11.30;;
15816;SDS011;8009;50.070;8.232;2023-05-07T04:52:12;11.87;;;11.47;;
15816;SDS011;8009;50.070;8.232;2023-05-07T04:54:40;11.00;;;10.60;;
15816;SDS011;8009;50.070;8.232;2023-05-07T04:57:09;11.73;;;11.33;;
15816;SDS011;8009;50.070;8.232;2023-05-07T04:59:37;11.93;;;11.53;;
15816;SDS011;8009;50.070;8.232;2023-05-07T05:02:05;11.43;;;11.03;;
15816;SDS011;8009;50.070;8.232;2023-05-07T05:04:36;11.77;;;11.37;;
15816;SDS011;8009;50.070;8.232;2023-05-07T05:07:04;11.63;;;11.23;;
15816;SDS011;8009;50.070;8.232;2023-05-07T05:09:33;12.10;;;11.70;;
15816;SDS011;8009;50.070;8.232;2023-05-07T05:12:01;11.57;;;11.17;;
15816;SDS011;8009;50.070;8.232;2023-05-07T05:14:32;11.63;;;11.23;;
15816;SDS011;8009;50.070;8.232;2023-05-07T05:17:00;11.33;;;10.93;;
15816;SDS011;8009;50.070;8.232;2023-05-07T05:19:28;12.07;;;11.67;;
15816;SDS011;8009;50.070;8.232;2023-05-07T05:21:59;11.20;;;10.80;;
15816;SDS011;8009;50.070;8.232;2023-05-07T05:24:28;13.17;;;12.67;;
15816;SDS011;8009;50.070;8.232;2023-05-07T05:26:57;11.70;;;11.30;;
15816;SDS011;8009;50.070;8.232;2023-05-07T05:29:26;11.40;;;11.00;;
15816;SDS011;8009;50.070;8.232;2023-05-07T05:31:56;11.30;;;10.90;;
15816;SDS011;8009;50.070;8.232;2023-05-07T05:34:24;11.87;;;11.47;;
15816;SDS011;8009;50.070;8.232;2023-05-07T05:36:53;11.70;;;11.30;;
15816;SDS011;8009;50.070;8.232;2023-05-07T05:39:24;12.83;;;12.33;;
15816;SDS011;8009;50.070;8.232;2023-05-07T05:41:53;11.47;;;11.07;;
15816;SDS011;8009;50.070;8.232;2023-05-07T05:44:21;12.47;;;11.97;;
15816;SDS011;8009;50.070;8.232;2023-05-07T05:46:50;10.97;;;10.57;;
15816;SDS011;8009;50.070;8.232;2023-05-07T05:49:20;12.27;;;11.77;;
15816;SDS011;8009;50.070;8.232;2023-05-07T05:51:48;11.17;;;10.77;;
15816;SDS011;8009;50.070;8.232;2023-05-07T05:54:16;10.67;;;10.27;;
15816;SDS011;8009;50.070;8.232;2023-05-07T05:56:57;11.70;;;11.30;;
15816;SDS011;8009;50.070;8.232;2023-05-07T05:59:25;13.97;;;13.47;;
15816;SDS011;8009;50.070;8.232;2023-05-07T06:01:54;11.97;;;11.57;;
15816;SDS011;8009;50.070;8.232;2023-05-07T06:04:34;11.83;;;11.33;;
15816;SDS011;8009;50.070;8.232;2023-05-07T06:07:02;12.03;;;11.57;;
15816;SDS011;8009;50.070;8.232;2023-05-07T06:09:31;11.87;;;11.47;;
15816;SDS011;8009;50.070;8.232;2023-05-07T06:12:02;11.27;;;10.87;;
15816;SDS011;8009;50.070;8.232;2023-05-07T06:14:31;12.30;;;11.87;;
15816;SDS011;8009;50.070;8.232;2023-05-07T06:16:59;10.60;;;10.20;;
15816;SDS011;8009;50.070;8.232;2023-05-07T06:19:27;11.33;;;10.93;;
15816;SDS011;8009;50.070;8.232;2023-05-07T06:21:56;11.03;;;10.63;;
15816;SDS011;8009;50.070;8.232;2023-05-07T06:24:26;12.53;;;12.03;;
15816;SDS011;8009;50.070;8.232;2023-05-07T06:26:54;10.63;;;10.23;;
15816;SDS011;8009;50.070;8.232;2023-05-07T06:29:26;10.97;;;10.57;;
15816;SDS011;8009;50.070;8.232;2023-05-07T06:31:56;11.37;;;10.97;;
15816;SDS011;8009;50.070;8.232;2023-05-07T06:34:33;12.00;;;11.50;;
15816;SDS011;8009;50.070;8.232;2023-05-07T06:37:01;13.27;;;12.77;;
15816;SDS011;8009;50.070;8.232;2023-05-07T06:39:30;13.93;;;13.43;;
15816;SDS011;8009;50.070;8.232;2023-05-07T06:41:59;12.97;;;12.47;;
15816;SDS011;8009;50.070;8.232;2023-05-07T06:44:32;12.27;;;11.80;;
15816;SDS011;8009;50.070;8.232;2023-05-07T06:47:00;12.40;;;11.97;;
15816;SDS011;8009;50.070;8.232;2023-05-07T06:49:28;11.63;;;11.23;;
15816;SDS011;8009;50.070;8.232;2023-05-07T06:51:57;12.23;;;11.73;;
15816;SDS011;8009;50.070;8.232;2023-05-07T06:54:25;13.13;;;12.63;;
15816;SDS011;8009;50.070;8.232;2023-05-07T06:56:54;16.30;;;15.70;;
15816;SDS011;8009;50.070;8.232;2023-05-07T06:59:23;17.57;;;16.87;;
15816;SDS011;8009;50.070;8.232;2023-05-07T07:01:54;18.07;;;17.37;;
15816;SDS011;8009;50.070;8.232;2023-05-07T07:04:22;17.70;;;17.03;;
15816;SDS011;8009;50.070;8.232;2023-05-07T07:06:51;18.23;;;17.53;;
15816;SDS011;8009;50.070;8.232;2023-05-07T07:09:21;18.90;;;18.20;;
15816;SDS011;8009;50.070;8.232;2023-05-07T07:11:50;16.47;;;15.87;;
15816;SDS011;8009;50.070;8.232;2023-05-07T07:14:18;17.00;;;16.40;;
15816;SDS011;8009;50.070;8.232;2023-05-07T07:16:47;17.60;;;16.90;;
15816;SDS011;8009;50.070;8.232;2023-05-07T07:19:18;17.80;;;17.10;;
15816;SDS011;8009;50.070;8.232;2023-05-07T07:21:47;16.50;;;15.90;;
15816;SDS011;8009;50.070;8.232;2023-05-07T07:24:16;17.00;;;16.33;;
15816;SDS011;8009;50.070;8.232;2023-05-07T07:26:46;18.03;;;17.33;;
15816;SDS011;8009;50.070;8.232;2023-05-07T07:29:14;16.40;;;15.80;;
15816;SDS011;8009;50.070;8.232;2023-05-07T07:31:43;17.97;;;17.27;;
15816;SDS011;8009;50.070;8.232;2023-05-07T07:34:13;15.33;;;14.73;;
15816;SDS011;8009;50.070;8.232;2023-05-07T07:36:44;16.00;;;15.40;;
15816;SDS011;8009;50.070;8.232;2023-05-07T07:39:13;16.47;;;15.87;;
15816;SDS011;8009;50.070;8.232;2023-05-07T07:41:41;18.13;;;17.43;;
15816;SDS011;8009;50.070;8.232;2023-05-07T07:44:10;19.17;;;18.47;;
15816;SDS011;8009;50.070;8.232;2023-05-07T07:46:38;19.43;;;18.73;;
15816;SDS011;8009;50.070;8.232;2023-05-07T07:49:06;18.40;;;17.70;;
15816;SDS011;8009;50.070;8.232;2023-05-07T07:51:35;18.80;;;18.10;;
15816;SDS011;8009;50.070;8.232;2023-05-07T07:54:06;17.43;;;16.77;;
15816;SDS011;8009;50.070;8.232;2023-05-07T07:56:34;20.40;;;19.60;;
15816;SDS011;8009;50.070;8.232;2023-05-07T07:59:02;19.23;;;18.53;;
15816;SDS011;8009;50.070;8.232;2023-05-07T08:01:31;18.97;;;18.27;;
15816;SDS011;8009;50.070;8.232;2023-05-07T08:03:59;19.50;;;18.80;;
15816;SDS011;8009;50.070;8.232;2023-05-07T08:06:28;18.10;;;17.40;;
15816;SDS011;8009;50.070;8.232;2023-05-07T08:08:56;16.73;;;16.13;;
15816;SDS011;8009;50.070;8.232;2023-05-07T08:11:27;15.87;;;15.27;;
15816;SDS011;8009;50.070;8.232;2023-05-07T08:13:56;15.87;;;15.27;;
15816;SDS011;8009;50.070;8.232;2023-05-07T08:16:24;15.80;;;15.20;;
15816;SDS011;8009;50.070;8.232;2023-05-07T08:18:53;16.90;;;16.30;;
15816;SDS011;8009;50.070;8.232;2023-05-07T08:21:21;15.60;;;15.00;;
15816;SDS011;8009;50.070;8.232;2023-05-07T08:23:51;16.33;;;15.73;;
15816;SDS011;8009;50.070;8.232;2023-05-07T08:26:19;16.93;;;16.33;;
15816;SDS011;8009;50.070;8.232;2023-05-07T08:28:50;16.60;;;16.00;;
15816;SDS011;8009;50.070;8.232;2023-05-07T08:31:19;17.63;;;16.93;;
15816;SDS011;8009;50.070;8.232;2023-05-07T08:33:47;19.23;;;18.53;;
15816;SDS011;8009;50.070;8.232;2023-05-07T08:36:15;18.93;;;18.23;;
15816;SDS011;8009;50.070;8.232;2023-05-07T08:41:55;18.00;;;17.30;;
15816;SDS011;8009;50.070;8.232;2023-05-07T08:44:26;17.07;;;16.47;;
15816;SDS011;8009;50.070;8.232;2023-05-07T08:46:56;15.83;;;15.23;;
15816;SDS011;8009;50.070;8.232;2023-05-07T08:49:27;17.07;;;16.37;;
15816;SDS011;8009;50.070;8.232;2023-05-07T09:12:05;18.77;;;18.07;;
15816;SDS011;8009;50.070;8.232;2023-05-07T09:14:34;19.33;;;18.63;;
15816;SDS011;8009;50.070;8.232;2023-05-07T09:17:13;31.85;;;30.63;;
15816;SDS011;8009;50.070;8.232;2023-05-07T09:19:42;22.80;;;21.90;;
15816;SDS011;8009;50.070;8.232;2023-05-07T09:22:12;19.93;;;19.20;;
15816;SDS011;8009;50.070;8.232;2023-05-07T09:24:59;18.00;;;17.30;;
15816;SDS011;8009;50.070;8.232;2023-05-07T09:27:30;14.70;;;14.20;;
15816;SDS011;8009;50.070;8.232;2023-05-07T09:30:05;14.63;;;14.13;;
15816;SDS011;8009;50.070;8.232;2023-05-07T09:32:35;15.70;;;15.10;;
15816;SDS011;8009;50.070;8.232;2023-05-07T09:35:14;16.17;;;15.57;;
15816;SDS011;8009;50.070;8.232;2023-05-07T09:37:43;14.10;;;13.60;;
15816;SDS011;8009;50.070;8.232;2023-05-07T09:46:11;13.30;;;12.80;;
15816;SDS011;8009;50.070;8.232;2023-05-07T09:48:41;26.40;;;25.13;;
15816;SDS011;8009;50.070;8.232;2023-05-07T09:51:17;12.60;;;12.10;;
15816;SDS011;8009;50.070;8.232;2023-05-07T09:54:00;12.50;;;12.00;;
15816;SDS011;8009;50.070;8.232;2023-05-07T09:56:30;13.20;;;12.70;;
15816;SDS011;8009;50.070;8.232;2023-05-07T09:58:59;12.20;;;11.73;;
15816;SDS011;8009;50.070;8.232;2023-05-07T10:01:30;11.70;;;11.30;;
15816;SDS011;8009;50.070;8.232;2023-05-07T10:04:01;16.17;;;15.57;;
15816;SDS011;8009;50.070;8.232;2023-05-07T10:06:29;12.00;;;11.60;;
15816;SDS011;8009;50.070;8.232;2023-05-07T10:09:00;16.80;;;16.10;;
15816;SDS011;8009;50.070;8.232;2023-05-07T10:11:30;12.70;;;12.20;;
15816;SDS011;8009;50.070;8.232;2023-05-07T10:14:00;13.15;;;12.65;;
15816;SDS011;8009;50.070;8.232;2023-05-07T10:16:34;12.50;;;12.00;;
15816;SDS011;8009;50.070;8.232;2023-05-07T10:19:03;12.10;;;11.70;;
15816;SDS011;8009;50.070;8.232;2023-05-07T10:31:37;13.18;;;12.68;;
15816;SDS011;8009;50.070;8.232;2023-05-07T10:34:26;12.63;;;12.13;;
15816;SDS011;8009;50.070;8.232;2023-05-07T11:05:37;11.60;;;11.20;;
15816;SDS011;8009;50.070;8.232;2023-05-07T11:08:06;11.82;;;11.43;;
15816;SDS011;8009;50.070;8.232;2023-05-07T11:23:12;12.20;;;11.77;;
15816;SDS011;8009;50.070;8.232;2023-05-07T11:29:39;13.00;;;12.50;;
15816;SDS011;8009;50.070;8.232;2023-05-07T11:32:27;14.25;;;13.75;;
15816;SDS011;8009;50.070;8.232;2023-05-07T11:38:24;13.48;;;12.98;;
15816;SDS011;8009;50.070;8.232;2023-05-07T11:43:55;12.15;;;11.65;;
15816;SDS011;8009;50.070;8.232;2023-05-07T11:46:24;11.27;;;10.88;;
15816;SDS011;8009;50.070;8.232;2023-05-07T11:48:54;12.70;;;12.20;;
15816;SDS011;8009;50.070;8.232;2023-05-07T11:51:24;13.20;;;12.70;;
15816;SDS011;8009;50.070;8.232;2023-05-07T11:54:10;12.30;;;11.90;;
15816;SDS011;8009;50.070;8.232;2023-05-07T11:56:39;13.25;;;12.75;;
15816;SDS011;8009;50.070;8.232;2023-05-07T11:59:08;13.63;;;13.13;;
15816;SDS011;8009;50.070;8.232;2023-05-07T12:01:36;13.27;;;12.77;;
15816;SDS011;8009;50.070;8.232;2023-05-07T12:04:04;13.90;;;13.40;;
15816;SDS011;8009;50.070;8.232;2023-05-07T12:06:36;11.90;;;11.50;;
15816;SDS011;8009;50.070;8.232;2023-05-07T12:09:05;12.32;;;11.85;;
15816;SDS011;8009;50.070;8.232;2023-05-07T12:11:51;13.63;;;13.13;;
15816;SDS011;8009;50.070;8.232;2023-05-07T12:14:21;12.20;;;11.80;;
15816;SDS011;8009;50.070;8.232;2023-05-07T12:19:45;12.43;;;11.93;;
15816;SDS011;8009;50.070;8.232;2023-05-07T12:22:14;11.82;;;11.43;;
15816;SDS011;8009;50.070;8.232;2023-05-07T12:24:45;11.90;;;11.50;;
15816;SDS011;8009;50.070;8.232;2023-05-07T12:27:17;12.68;;;12.18;;
15816;SDS011;8009;50.070;8.232;2023-05-07T12:29:46;14.07;;;13.57;;
15816;SDS011;8009;50.070;8.232;2023-05-07T12:32:15;13.43;;;12.93;;
15816;SDS011;8009;50.070;8.232;2023-05-07T12:34:44;13.00;;;12.50;;
15816;SDS011;8009;50.070;8.232;2023-05-07T12:37:13;12.85;;;12.35;;
15816;SDS011;8009;50.070;8.232;2023-05-07T12:39:44;13.18;;;12.68;;
15816;SDS011;8009;50.070;8.232;2023-05-07T12:42:19;13.32;;;12.82;;
15816;SDS011;8009;50.070;8.232;2023-05-07T12:44:51;12.75;;;12.25;;
15816;SDS011;8009;50.070;8.232;2023-05-07T12:47:19;13.73;;;13.23;;
15816;SDS011;8009;50.070;8.232;2023-05-07T12:49:48;14.57;;;14.07;;
15816;SDS011;8009;50.070;8.232;2023-05-07T12:52:16;16.70;;;16.10;;
15816;SDS011;8009;50.070;8.232;2023-05-07T12:54:45;15.38;;;14.77;;
15816;SDS011;8009;50.070;8.232;2023-05-07T12:57:13;18.25;;;17.55;;
15816;SDS011;8009;50.070;8.232;2023-05-07T12:59:44;17.80;;;17.10;;
15816;SDS011;8009;50.070;8.232;2023-05-07T13:02:12;17.00;;;16.40;;
15816;SDS011;8009;50.070;8.232;2023-05-07T13:04:41;19.70;;;18.90;;
15816;SDS011;8009;50.070;8.232;2023-05-07T13:07:09;18.05;;;17.35;;
15816;SDS011;8009;50.070;8.232;2023-05-07T13:09:37;16.70;;;16.10;;
15816;SDS011;8009;50.070;8.232;2023-05-07T13:12:07;18.55;;;17.85;;
15816;SDS011;8009;50.070;8.232;2023-05-07T13:14:35;15.35;;;14.75;;
15816;SDS011;8009;50.070;8.232;2023-05-07T13:17:06;14.70;;;14.20;;
15816;SDS011;8009;50.070;8.232;2023-05-07T13:19:34;14.65;;;14.15;;
15816;SDS011;8009;50.070;8.232;2023-05-07T13:22:03;16.27;;;15.68;;
15816;SDS011;8009;50.070;8.232;2023-05-07T13:24:32;19.08;;;18.38;;
15816;SDS011;8009;50.070;8.232;2023-05-07T13:27:00;17.98;;;17.27;;
15816;SDS011;8009;50.070;8.232;2023-05-07T13:29:30;19.45;;;18.55;;
15816;SDS011;8009;50.070;8.232;2023-05-07T13:31:59;18.50;;;17.80;;
15816;SDS011;8009;50.070;8.232;2023-05-07T13:34:30;14.27;;;13.77;;
15816;SDS011;8009;50.070;8.232;2023-05-07T13:36:58;14.52;;;14.02;;
15816;SDS011;8009;50.070;8.232;2023-05-07T13:39:26;13.65;;;13.15;;
15816;SDS011;8009;50.070;8.232;2023-05-07T13:41:55;14.43;;;13.93;;
15816;SDS011;8009;50.070;8.232;2023-05-07T13:44:23;13.90;;;13.40;;
15816;SDS011;8009;50.070;8.232;2023-05-07T13:46:51;14.38;;;13.88;;
15816;SDS011;8009;50.070;8.232;2023-05-07T13:49:20;13.00;;;12.50;;
15816;SDS011;8009;50.070;8.232;2023-05-07T13:51:51;13.57;;;13.07;;
15816;SDS011;8009;50.070;8.232;2023-05-07T13:54:19;24.13;;;23.23;;
15816;SDS011;8009;50.070;8.232;2023-05-07T13:56:48;19.60;;;18.85;;
15816;SDS011;8009;50.070;8.232;2023-05-07T13:59:16;18.58;;;17.88;;
15816;SDS011;8009;50.070;8.232;2023-05-07T14:01:44;17.05;;;16.45;;
15816;SDS011;8009;50.070;8.232;2023-05-07T14:04:13;17.20;;;16.60;;
15816;SDS011;8009;50.070;8.232;2023-05-07T14:06:41;18.05;;;17.35;;
15816;SDS011;8009;50.070;8.232;2023-05-07T14:09:12;19.00;;;18.30;;
15816;SDS011;8009;50.070;8.232;2023-05-07T14:11:40;19.65;;;18.85;;
15816;SDS011;8009;50.070;8.232;2023-05-07T14:14:09;19.05;;;18.35;;
15816;SDS011;8009;50.070;8.232;2023-05-07T14:16:38;17.23;;;16.63;;
15816;SDS011;8009;50.070;8.232;2023-05-07T14:19:06;17.60;;;16.90;;
15816;SDS011;8009;50.070;8.232;2023-05-07T14:21:35;16.88;;;16.27;;
15816;SDS011;8009;50.070;8.232;2023-05-07T14:24:03;17.05;;;16.45;;
15816;SDS011;8009;50.070;8.232;2023-05-07T14:26:34;16.98;;;16.38;;
15816;SDS011;8009;50.070;8.232;2023-05-07T14:29:03;16.25;;;15.65;;
15816;SDS011;8009;50.070;8.232;2023-05-07T14:31:31;15.55;;;14.95;;
15816;SDS011;8009;50.070;8.232;2023-05-07T14:34:00;15.27;;;14.68;;
15816;SDS011;8009;50.070;8.232;2023-05-07T14:36:29;15.90;;;15.30;;
15816;SDS011;8009;50.070;8.232;2023-05-07T14:38:57;16.75;;;16.15;;
15816;SDS011;8009;50.070;8.232;2023-05-07T14:41:26;16.58;;;15.98;;
15816;SDS011;8009;50.070;8.232;2023-05-07T14:43:57;17.15;;;16.45;;
15816;SDS011;8009;50.070;8.232;2023-05-07T14:46:25;15.85;;;15.25;;
15816;SDS011;8009;50.070;8.232;2023-05-07T14:48:53;15.70;;;15.10;;
15816;SDS011;8009;50.070;8.232;2023-05-07T14:51:22;15.63;;;15.02;;
15816;SDS011;8009;50.070;8.232;2023-05-07T14:53:53;18.45;;;17.75;;
15816;SDS011;8009;50.070;8.232;2023-05-07T14:56:21;18.10;;;17.40;;
15816;SDS011;8009;50.070;8.232;2023-05-07T14:58:50;19.58;;;18.85;;
15816;SDS011;8009;50.070;8.232;2023-05-07T15:01:21;18.73;;;18.02;;
15816;SDS011;8009;50.070;8.232;2023-05-07T15:03:49;34.50;;;33.15;;
15816;SDS011;8009;50.070;8.232;2023-05-07T15:06:18;17.33;;;16.63;;
15816;SDS011;8009;50.070;8.232;2023-05-07T15:08:46;14.90;;;14.35;;
15816;SDS011;8009;50.070;8.232;2023-05-07T15:11:14;14.30;;;13.80;;
15816;SDS011;8009;50.070;8.232;2023-05-07T15:13:44;14.18;;;13.68;;
15816;SDS011;8009;50.070;8.232;2023-05-07T15:16:12;13.30;;;12.80;;
15816;SDS011;8009;50.070;8.232;2023-05-07T15:18:43;12.68;;;12.18;;
15816;SDS011;8009;50.070;8.232;2023-05-07T15:21:11;13.50;;;13.00;;
15816;SDS011;8009;50.070;8.232;2023-05-07T15:23:40;13.38;;;12.88;;
15816;SDS011;8009;50.070;8.232;2023-05-07T15:26:09;13.15;;;12.65;;
15816;SDS011;8009;50.070;8.232;2023-05-07T15:28:38;14.25;;;13.75;;
15816;SDS011;8009;50.070;8.232;2023-05-07T15:31:06;14.13;;;13.63;;
15816;SDS011;8009;50.070;8.232;2023-05-07T15:33:34;13.55;;;13.05;;
15816;SDS011;8009;50.070;8.232;2023-05-07T15:36:06;13.63;;;13.02;;
15816;SDS011;8009;50.070;8.232;2023-05-07T15:38:35;14.60;;;14.00;;
15816;SDS011;8009;50.070;8.232;2023-05-07T15:41:03;14.27;;;13.70;;
15816;SDS011;8009;50.070;8.232;2023-05-07T15:43:34;14.13;;;13.63;;
15816;SDS011;8009;50.070;8.232;2023-05-07T15:46:12;14.15;;;13.65;;
15816;SDS011;8009;50.070;8.232;2023-05-07T15:48:42;14.13;;;13.63;;
15816;SDS011;8009;50.070;8.232;2023-05-07T15:51:15;14.38;;;13.88;;
15816;SDS011;8009;50.070;8.232;2023-05-07T15:53:43;15.10;;;14.50;;
15816;SDS011;8009;50.070;8.232;2023-05-07T15:56:12;14.95;;;14.35;;
15816;SDS011;8009;50.070;8.232;2023-05-07T15:58:40;14.88;;;14.27;;
15816;SDS011;8009;50.070;8.232;2023-05-07T16:01:08;14.40;;;13.90;;
15816;SDS011;8009;50.070;8.232;2023-05-07T16:03:37;14.60;;;14.10;;
15816;SDS011;8009;50.070;8.232;2023-05-07T16:06:05;15.32;;;14.73;;
15816;SDS011;8009;50.070;8.232;2023-05-07T16:08:38;15.32;;;14.73;;
15816;SDS011;8009;50.070;8.232;2023-05-07T16:11:08;15.68;;;15.07;;
15816;SDS011;8009;50.070;8.232;2023-05-07T16:13:36;15.98;;;15.38;;
15816;SDS011;8009;50.070;8.232;2023-05-07T16:16:05;15.05;;;14.45;;
15816;SDS011;8009;50.070;8.232;2023-05-07T16:18:33;16.42;;;15.82;;
15816;SDS011;8009;50.070;8.232;2023-05-07T16:21:02;15.38;;;14.77;;